createdAt,value
2023-05-02T00:00:37.098Z,101347.08
2023-05-02T00:03:19.756Z,101340.97
2023-05-02T00:05:52.272Z,101341.42
2023-05-02T00:08:24.955Z,101345.31
2023-05-02T00:10:57.273Z,101348.48
2023-05-02T00:13:29.619Z,101349.09
2023-05-02T00:16:02.093Z,101351.77
2023-05-02T00:18:34.504Z,101358.10
2023-05-02T00:21:07.206Z,101358.98
2023-05-02T00:23:39.444Z,101360.66
2023-05-02T00:26:13.192Z,101361.61
2023-05-02T00:28:45.373Z,101359.42
2023-05-02T00:31:17.904Z,101359.88
2023-05-02T00:33:50.333Z,101358.95
2023-05-02T00:36:22.894Z,101357.38
2023-05-02T00:38:55.186Z,101360.73
2023-05-02T00:41:27.584Z,101363.38
2023-05-02T00:44:00.920Z,101364.34
2023-05-02T00:46:33.527Z,101361.05
2023-05-02T00:49:05.926Z,101364.44
2023-05-02T00:51:38.267Z,101365.61
2023-05-02T00:54:11.044Z,101368.27
2023-05-02T00:56:43.523Z,101369.85
2023-05-02T00:59:18.047Z,101372.42
2023-05-02T01:02:02.140Z,101367.40
2023-05-02T01:04:51.882Z,101369.92
2023-05-02T01:07:41.768Z,101371.87
2023-05-02T01:10:25.125Z,101371.27
2023-05-02T01:13:05.040Z,101372.92
2023-05-02T01:15:40.406Z,101371.88
2023-05-02T01:18:18.766Z,101370.98
2023-05-02T01:20:55.052Z,101368.55
2023-05-02T01:23:34.272Z,101369.77
2023-05-02T01:26:16.972Z,101367.96
2023-05-02T01:28:59.008Z,101366.71
2023-05-02T01:31:34.469Z,101368.15
2023-05-02T01:34:11.025Z,101372.22
2023-05-02T01:36:46.882Z,101367.16
2023-05-02T01:39:22.662Z,101371.02
2023-05-02T01:41:58.114Z,101371.02
2023-05-02T01:44:33.517Z,101371.05
2023-05-02T01:47:09.005Z,101369.04
2023-05-02T01:49:42.787Z,101372.05
2023-05-02T01:52:16.931Z,101368.37
2023-05-02T01:54:52.295Z,101373.79
2023-05-02T01:57:25.037Z,101372.36
2023-05-02T01:59:58.802Z,101378.16
2023-05-02T02:02:32.470Z,101376.20
2023-05-02T02:05:07.105Z,101380.54
2023-05-02T02:07:39.696Z,101377.21
2023-05-02T02:10:13.417Z,101377.90
2023-05-02T02:12:52.107Z,101375.17
2023-05-02T02:15:29.296Z,101378.12
2023-05-02T02:18:06.779Z,101376.58
2023-05-02T02:20:40.497Z,101373.90
2023-05-02T02:23:15.042Z,101374.33
2023-05-02T02:25:48.485Z,101379.21
2023-05-02T02:28:20.921Z,101380.92
2023-05-02T02:30:53.309Z,101384.30
2023-05-02T02:33:31.256Z,101381.43
2023-05-02T02:36:09.762Z,101381.48
2023-05-02T02:38:49.601Z,101383.67
2023-05-02T02:41:41.790Z,101384.36
2023-05-02T02:44:28.317Z,101388.75
2023-05-02T02:47:09.171Z,101383.73
2023-05-02T02:49:49.899Z,101386.79
2023-05-02T02:52:29.818Z,101392.17
2023-05-02T02:55:09.009Z,101391.48
2023-05-02T02:57:48.985Z,101392.08
2023-05-02T03:00:26.238Z,101396.11
2023-05-02T03:02:58.864Z,101396.11
2023-05-02T03:05:34.285Z,101398.38
2023-05-02T03:08:06.827Z,101404.20
2023-05-02T03:10:39.283Z,101405.37
2023-05-02T03:13:11.621Z,101409.74
2023-05-02T03:16:18.652Z,101411.52
2023-05-02T03:18:50.894Z,101411.69
2023-05-02T03:21:23.168Z,101415.58
2023-05-02T03:23:55.415Z,101416.72
2023-05-02T03:26:28.075Z,101421.09
2023-05-02T03:29:00.785Z,101425.12
2023-05-02T03:31:33.204Z,101426.42
2023-05-02T03:34:05.446Z,101426.58
2023-05-02T03:36:37.698Z,101427.23
2023-05-02T03:39:09.908Z,101424.92
2023-05-02T03:41:42.496Z,101428.39
2023-05-02T03:44:15.050Z,101429.70
2023-05-02T03:46:47.429Z,101433.02
2023-05-02T03:49:20.094Z,101438.00
2023-05-02T03:51:52.519Z,101442.24
2023-05-02T03:54:24.937Z,101443.71
2023-05-02T03:56:58.411Z,101447.77
2023-05-02T03:59:30.892Z,101446.08
2023-05-02T04:02:03.155Z,101450.25
2023-05-02T04:04:37.166Z,101453.06
2023-05-02T04:07:15.829Z,101455.42
2023-05-02T04:09:48.264Z,101453.11
2023-05-02T04:12:20.612Z,101456.98
2023-05-02T04:14:52.923Z,101455.21
2023-05-02T04:17:26.045Z,101458.59
2023-05-02T04:19:58.897Z,101457.22
2023-05-02T04:22:32.061Z,101460.55
2023-05-02T04:25:04.618Z,101461.23
2023-05-02T04:27:37.034Z,101458.72
2023-05-02T04:30:12.061Z,101461.85
2023-05-02T04:32:44.427Z,101458.16
2023-05-02T04:35:17.472Z,101462.23
2023-05-02T04:37:49.876Z,101463.38
2023-05-02T04:40:22.457Z,101462.45
2023-05-02T04:42:54.762Z,101463.25
2023-05-02T04:45:27.594Z,101456.13
2023-05-02T04:47:59.875Z,101463.61
2023-05-02T04:50:32.607Z,101466.17
2023-05-02T04:53:05.337Z,101468.02
2023-05-02T04:55:37.760Z,101466.54
2023-05-02T04:58:10.197Z,101463.73
2023-05-02T05:00:42.814Z,101466.35
2023-05-02T05:03:15.117Z,101466.83
2023-05-02T05:05:47.693Z,101462.95
2023-05-02T05:08:20.230Z,101466.80
2023-05-02T05:10:53.229Z,101463.41
2023-05-02T05:13:25.640Z,101462.69
2023-05-02T05:15:58.064Z,101466.33
2023-05-02T05:18:30.364Z,101469.27
2023-05-02T05:21:02.753Z,101468.57
2023-05-02T05:23:35.043Z,101470.43
2023-05-02T05:26:15.364Z,101477.05
2023-05-02T05:28:47.741Z,101473.09
2023-05-02T05:31:20.308Z,101474.54
2023-05-02T05:33:52.885Z,101471.02
2023-05-02T05:36:25.766Z,101470.56
2023-05-02T05:38:58.157Z,101475.98
2023-05-02T05:41:30.710Z,101477.11
2023-05-02T05:44:03.072Z,101477.37
2023-05-02T05:46:35.424Z,101478.08
2023-05-02T05:49:07.858Z,101481.33
2023-05-02T05:51:40.455Z,101478.48
2023-05-02T05:54:13.000Z,101481.05
2023-05-02T05:56:45.561Z,101481.67
2023-05-02T05:59:18.123Z,101487.55
2023-05-02T06:01:50.889Z,101486.25
2023-05-02T06:04:23.268Z,101487.67
2023-05-02T06:06:56.114Z,101490.27
2023-05-02T06:09:28.597Z,101490.09
2023-05-02T06:12:02.938Z,101487.95
2023-05-02T06:14:35.402Z,101494.29
2023-05-02T06:17:07.649Z,101494.73
2023-05-02T06:19:40.025Z,101491.74
2023-05-02T06:22:14.890Z,101494.52
2023-05-02T06:24:47.249Z,101493.48
2023-05-02T06:27:19.619Z,101495.48
2023-05-02T06:29:53.975Z,101496.47
2023-05-02T06:32:26.537Z,101493.84
2023-05-02T06:34:58.949Z,101495.63
2023-05-02T06:37:36.635Z,101490.67
2023-05-02T06:40:11.263Z,101483.65
2023-05-02T06:42:43.744Z,101484.23
2023-05-02T06:45:16.385Z,101478.40
2023-05-02T06:47:48.837Z,101476.58
2023-05-02T06:50:21.383Z,101471.79
2023-05-02T06:52:53.779Z,101474.07
2023-05-02T06:55:26.247Z,101473.19
2023-05-02T06:57:58.745Z,101467.70
2023-05-02T07:00:31.185Z,101469.14
2023-05-02T07:03:03.742Z,101469.70
2023-05-02T07:05:36.109Z,101471.90
2023-05-02T07:08:10.539Z,101474.31
2023-05-02T07:10:42.894Z,101469.88
2023-05-02T07:13:15.352Z,101468.91
2023-05-02T07:15:47.794Z,101465.33
2023-05-02T07:18:20.225Z,101461.77
2023-05-02T07:20:52.727Z,101462.88
2023-05-02T07:23:25.451Z,101461.33
2023-05-02T07:25:58.083Z,101463.71
2023-05-02T07:28:30.631Z,101467.11
2023-05-02T07:31:03.561Z,101469.45
2023-05-02T07:33:36.210Z,101469.85
2023-05-02T07:36:09.216Z,101475.64
2023-05-02T07:38:41.477Z,101474.14
2023-05-02T07:41:14.794Z,101475.04
2023-05-02T07:43:47.215Z,101478.95
2023-05-02T07:46:19.633Z,101479.15
2023-05-02T07:48:54.276Z,101479.77
2023-05-02T07:51:27.144Z,101478.34
2023-05-02T07:53:59.598Z,101481.23
2023-05-02T07:56:33.442Z,101480.30
2023-05-02T07:59:05.842Z,101483.36
2023-05-02T08:01:38.323Z,101488.67
2023-05-02T08:04:11.774Z,101486.27
2023-05-02T08:06:45.635Z,101490.51
2023-05-02T08:09:18.148Z,101488.32
2023-05-02T08:11:52.148Z,101487.64
2023-05-02T08:14:24.482Z,101490.65
2023-05-02T08:16:56.654Z,101491.27
2023-05-02T08:19:29.372Z,101488.55
2023-05-02T08:22:01.848Z,101487.30
2023-05-02T08:24:34.086Z,101480.93
2023-05-02T08:27:06.772Z,101488.34
2023-05-02T08:29:40.827Z,101488.02
2023-05-02T08:32:13.218Z,101486.74
2023-05-02T08:34:45.917Z,101483.98
2023-05-02T08:37:18.628Z,101485.89
2023-05-02T08:39:50.970Z,101485.90
2023-05-02T08:42:23.969Z,101485.27
2023-05-02T08:44:57.624Z,101489.09
2023-05-02T08:47:31.357Z,101485.59
2023-05-02T08:50:04.353Z,101483.73
2023-05-02T08:52:37.761Z,101481.84
2023-05-02T08:55:14.020Z,101476.86
2023-05-02T08:57:47.831Z,101477.05
2023-05-02T09:00:23.498Z,101476.36
2023-05-02T09:03:07.660Z,101476.63
2023-05-02T09:05:43.507Z,101480.05
2023-05-02T09:08:22.834Z,101474.13
2023-05-02T09:10:55.487Z,101472.84
2023-05-02T09:13:38.255Z,101474.58
2023-05-02T09:16:12.615Z,101466.41
2023-05-02T09:18:47.239Z,101468.36
2023-05-02T09:21:21.597Z,101466.63
2023-05-02T09:23:55.929Z,101462.67
2023-05-02T09:26:32.379Z,101463.76
2023-05-02T09:29:06.785Z,101462.70
2023-05-02T09:34:18.897Z,101459.88
2023-05-02T09:36:54.415Z,101460.73
2023-05-02T09:39:29.731Z,101459.80
2023-05-02T09:42:03.638Z,101464.33
2023-05-02T09:44:43.406Z,101459.08
2023-05-02T09:47:27.906Z,101455.80
2023-05-02T09:50:00.540Z,101457.66
2023-05-02T09:52:32.899Z,101453.75
2023-05-02T09:55:28.719Z,101444.86
2023-05-02T09:58:01.655Z,101447.39
2023-05-02T10:00:45.476Z,101444.83
2023-05-02T10:03:19.870Z,101449.14
2023-05-02T10:05:54.446Z,101444.21
2023-05-02T10:08:28.696Z,101441.65
2023-05-02T10:11:05.434Z,101438.08
2023-05-02T10:13:42.942Z,101436.94
2023-05-02T10:16:25.016Z,101431.14
2023-05-02T10:19:04.692Z,101429.78
2023-05-02T10:21:38.252Z,101428.61
2023-05-02T10:24:11.256Z,101428.80
2023-05-02T10:26:44.083Z,101418.52
2023-05-02T10:29:16.882Z,101428.86
2023-05-02T10:31:50.692Z,101425.36
2023-05-02T10:34:23.564Z,101423.98
2023-05-02T10:36:56.421Z,101426.46
2023-05-02T10:39:29.341Z,101422.20
2023-05-02T10:42:03.562Z,101420.71
2023-05-02T10:44:40.111Z,101415.30
2023-05-02T10:47:27.219Z,101413.53
2023-05-02T10:50:01.544Z,101407.02
2023-05-02T10:52:35.906Z,101416.65
2023-05-02T10:55:22.554Z,101423.47
2023-05-02T11:01:37.093Z,101417.42
2023-05-02T11:04:11.442Z,101414.06
2023-05-02T11:07:21.201Z,101413.84
2023-05-02T11:09:53.623Z,101414.41
2023-05-02T11:12:47.518Z,101417.24
2023-05-02T11:15:58.293Z,101419.12
2023-05-02T11:18:50.641Z,101422.09
2023-05-02T11:21:33.770Z,101414.36
2023-05-02T11:24:42.296Z,101417.79
2023-05-02T11:27:44.033Z,101415.57
2023-05-02T11:30:16.459Z,101402.45
2023-05-02T11:33:20.232Z,101398.85
2023-05-02T11:35:52.980Z,101408.02
2023-05-02T11:38:26.460Z,101408.83
2023-05-02T11:41:04.446Z,101402.50
2023-05-02T11:43:37.140Z,101404.98
2023-05-02T11:46:11.868Z,101399.84
2023-05-02T11:48:45.228Z,101394.35
2023-05-02T11:51:25.474Z,101391.04
2023-05-02T11:53:58.055Z,101389.08
2023-05-02T11:56:30.483Z,101397.41
2023-05-02T11:59:04.017Z,101400.11
2023-05-02T12:01:36.670Z,101393.14
2023-05-02T12:04:10.665Z,101388.06
2023-05-02T12:06:58.058Z,101385.34
2023-05-02T12:09:30.451Z,101389.26
2023-05-02T12:12:03.431Z,101388.48
2023-05-02T12:14:40.397Z,101379.33
2023-05-02T12:17:12.879Z,101383.45
2023-05-02T12:19:46.091Z,101382.68
2023-05-02T12:22:19.304Z,101378.00
2023-05-02T12:24:53.701Z,101377.52
2023-05-02T12:27:26.247Z,101372.09
2023-05-02T12:29:58.840Z,101369.06
2023-05-02T12:32:36.037Z,101372.63
2023-05-02T12:35:24.256Z,101362.25
2023-05-02T12:37:57.358Z,101357.95
2023-05-02T12:40:29.761Z,101358.48
2023-05-02T12:43:08.383Z,101348.68
2023-05-02T12:45:40.858Z,101354.63
2023-05-02T12:48:24.234Z,101345.31
2023-05-02T12:50:57.501Z,101342.73
2023-05-02T12:53:43.974Z,101341.98
2023-05-02T12:56:17.209Z,101335.45
2023-05-02T12:58:51.128Z,101335.20
2023-05-02T13:01:23.950Z,101335.96
2023-05-02T13:03:56.832Z,101333.47
2023-05-02T13:06:31.458Z,101328.85
2023-05-02T13:09:05.149Z,101321.14
2023-05-02T13:11:39.464Z,101323.72
2023-05-02T13:14:11.802Z,101327.36
2023-05-02T13:16:44.214Z,101322.85
2023-05-02T13:19:16.816Z,101315.61
2023-05-02T13:21:49.140Z,101315.33
2023-05-02T13:24:21.524Z,101317.08
2023-05-02T13:26:53.892Z,101308.33
2023-05-02T13:29:26.273Z,101305.21
2023-05-02T13:31:58.584Z,101303.23
2023-05-02T13:34:30.991Z,101309.67
2023-05-02T13:37:03.249Z,101303.61
2023-05-02T13:39:35.926Z,101298.52
2023-05-02T13:42:08.477Z,101295.48
2023-05-02T13:44:41.173Z,101294.83
2023-05-02T13:47:13.446Z,101292.56
2023-05-02T13:49:46.130Z,101284.32
2023-05-02T13:52:18.400Z,101289.48
2023-05-02T13:54:50.596Z,101285.85
2023-05-02T13:57:22.910Z,101285.98
2023-05-02T13:59:55.526Z,101286.66
2023-05-02T14:02:29.132Z,101289.27
2023-05-02T14:05:01.736Z,101286.16
2023-05-02T14:07:34.130Z,101284.13
2023-05-02T14:10:07.609Z,101285.97
2023-05-02T14:12:40.045Z,101281.73
2023-05-02T14:15:14.083Z,101279.90
2023-05-02T14:17:47.416Z,101275.60
2023-05-02T14:20:19.991Z,101275.71
2023-05-02T14:22:52.327Z,101278.29
2023-05-02T14:25:24.578Z,101270.83
2023-05-02T14:27:56.860Z,101269.95
2023-05-02T14:30:29.149Z,101270.35
2023-05-02T14:33:01.566Z,101267.23
2023-05-02T14:35:33.961Z,101260.11
2023-05-02T14:38:06.190Z,101255.01
2023-05-02T14:40:39.232Z,101260.02
2023-05-02T14:43:13.427Z,101258.33
2023-05-02T14:45:45.788Z,101265.59
2023-05-02T14:48:18.137Z,101263.16
2023-05-02T14:50:50.398Z,101256.48
2023-05-02T14:53:23.404Z,101260.27
2023-05-02T14:55:55.857Z,101256.23
2023-05-02T14:58:28.201Z,101260.69
2023-05-02T15:01:00.558Z,101256.94
2023-05-02T15:03:33.250Z,101253.45
2023-05-02T15:06:06.118Z,101250.61
2023-05-02T15:08:39.263Z,101248.55
2023-05-02T15:11:12.126Z,101250.88
2023-05-02T15:13:44.396Z,101252.34
2023-05-02T15:16:16.709Z,101249.39
2023-05-02T15:18:49.175Z,101249.16
2023-05-02T15:21:21.660Z,101250.34
2023-05-02T15:23:54.082Z,101250.13
2023-05-02T15:26:27.341Z,101252.04
2023-05-02T15:29:00.016Z,101251.68
2023-05-02T15:31:34.156Z,101250.98
2023-05-02T15:34:07.419Z,101253.64
2023-05-02T15:36:40.948Z,101256.33
2023-05-02T15:39:18.015Z,101259.85
2023-05-02T15:41:50.720Z,101254.85
2023-05-02T15:44:23.144Z,101257.05
2023-05-02T15:46:56.055Z,101254.01
2023-05-02T15:49:32.319Z,101249.12
2023-05-02T15:52:05.151Z,101246.91
2023-05-02T15:54:40.529Z,101253.65
2023-05-02T15:57:13.477Z,101256.35
2023-05-02T15:59:46.164Z,101257.44
2023-05-02T16:02:18.781Z,101257.91
2023-05-02T16:04:51.218Z,101257.23
2023-05-02T16:07:23.742Z,101261.48
2023-05-02T16:09:57.260Z,101260.27
2023-05-02T16:12:29.837Z,101264.71
2023-05-02T16:15:05.588Z,101256.02
2023-05-02T16:17:43.079Z,101254.50
2023-05-02T16:20:22.053Z,101259.84
2023-05-02T16:22:55.447Z,101257.75
2023-05-02T16:25:29.248Z,101254.80
2023-05-02T16:28:03.629Z,101267.61
2023-05-02T16:30:40.275Z,101271.78
2023-05-02T16:33:14.870Z,101263.84
2023-05-02T16:35:47.243Z,101273.64
2023-05-02T16:38:19.666Z,101272.77
2023-05-02T16:40:52.216Z,101271.58
2023-05-02T16:43:24.626Z,101279.63
2023-05-02T16:46:04.189Z,101284.39
2023-05-02T16:48:37.021Z,101288.92
2023-05-02T16:51:09.608Z,101282.67
2023-05-02T16:53:43.620Z,101283.77
2023-05-02T16:56:16.046Z,101285.00
2023-05-02T16:58:48.323Z,101290.02
2023-05-02T17:01:20.703Z,101298.60
2023-05-02T17:03:53.018Z,101299.54
2023-05-02T17:06:25.428Z,101300.55
2023-05-02T17:08:57.941Z,101298.90
2023-05-02T17:11:30.378Z,101305.27
2023-05-02T17:14:02.999Z,101313.30
2023-05-02T17:16:35.408Z,101314.52
2023-05-02T17:19:07.986Z,101322.14
2023-05-02T17:21:40.754Z,101334.91
2023-05-02T17:24:13.528Z,101329.10
2023-05-02T17:26:45.929Z,101331.20
2023-05-02T17:29:18.167Z,101329.58
2023-05-02T17:31:50.527Z,101328.09
2023-05-02T17:34:26.883Z,101330.89
2023-05-02T17:36:59.096Z,101339.17
2023-05-02T17:39:31.290Z,101343.98
2023-05-02T17:42:03.664Z,101346.45
2023-05-02T17:44:36.920Z,101350.45
2023-05-02T17:47:09.315Z,101351.42
2023-05-02T17:49:41.685Z,101357.02
2023-05-02T17:52:14.066Z,101364.45
2023-05-02T17:54:46.391Z,101369.74
2023-05-02T17:57:19.739Z,101378.67
2023-05-02T17:59:56.664Z,101378.90
2023-05-02T18:02:29.237Z,101379.91
2023-05-02T18:05:04.045Z,101387.73
2023-05-02T18:07:36.590Z,101388.35
2023-05-02T18:10:10.351Z,101397.63
2023-05-02T18:12:42.847Z,101397.20
2023-05-02T18:15:15.479Z,101402.38
2023-05-02T18:17:48.222Z,101403.83
2023-05-02T18:20:20.682Z,101413.48
2023-05-02T18:22:53.017Z,101415.98
2023-05-02T18:25:25.529Z,101421.73
2023-05-02T18:27:58.106Z,101425.11
2023-05-02T18:30:30.919Z,101425.10
2023-05-02T18:33:04.785Z,101423.96
2023-05-02T18:35:38.249Z,101427.05
2023-05-02T18:38:10.856Z,101425.54
2023-05-02T18:40:43.232Z,101428.12
2023-05-02T18:43:15.643Z,101428.06
2023-05-02T18:45:48.151Z,101431.64
2023-05-02T18:48:20.817Z,101426.21
2023-05-02T18:50:56.622Z,101423.13
2023-05-02T18:53:28.961Z,101426.23
2023-05-02T18:56:01.398Z,101422.57
2023-05-02T18:58:34.173Z,101421.90
2023-05-02T19:01:15.116Z,101420.34
2023-05-02T19:03:49.886Z,101423.20
2023-05-02T19:06:22.563Z,101417.05
2023-05-02T19:08:59.640Z,101419.67
2023-05-02T19:11:31.975Z,101417.81
2023-05-02T19:14:04.416Z,101417.11
2023-05-02T19:16:38.220Z,101415.59
2023-05-02T19:19:10.689Z,101418.64
2023-05-02T19:21:43.519Z,101425.31
2023-05-02T19:24:15.872Z,101425.28
2023-05-02T19:26:48.078Z,101430.17
2023-05-02T19:29:20.810Z,101429.98
2023-05-02T19:31:53.074Z,101437.42
2023-05-02T19:34:25.323Z,101436.13
2023-05-02T19:36:57.718Z,101441.37
2023-05-02T19:39:33.176Z,101441.30
2023-05-02T19:42:05.701Z,101439.67
2023-05-02T19:44:37.986Z,101445.30
2023-05-02T19:47:12.875Z,101449.78
2023-05-02T19:49:45.211Z,101452.80
2023-05-02T19:52:17.648Z,101455.49
2023-05-02T19:54:51.720Z,101457.63
2023-05-02T19:57:24.055Z,101458.36
2023-05-02T19:59:57.976Z,101457.55
2023-05-02T20:02:30.406Z,101457.09
2023-05-02T20:05:02.937Z,101456.98
2023-05-02T20:07:35.263Z,101459.69
2023-05-02T20:10:09.629Z,101458.54
2023-05-02T20:12:44.910Z,101464.36
2023-05-02T20:15:17.597Z,101467.43
2023-05-02T20:17:49.908Z,101474.35
2023-05-02T20:20:22.344Z,101474.21
2023-05-02T20:22:55.476Z,101478.77
2023-05-02T20:25:28.778Z,101478.67
2023-05-02T20:28:01.214Z,101473.68
2023-05-02T20:30:33.776Z,101471.70
2023-05-02T20:33:14.778Z,101470.73
2023-05-02T20:35:54.485Z,101473.36
2023-05-02T20:38:30.100Z,101475.30
2023-05-02T20:41:03.002Z,101475.96
2023-05-02T20:43:35.561Z,101469.33
2023-05-02T20:46:13.716Z,101470.80
2023-05-02T20:48:45.960Z,101471.05
2023-05-02T20:51:18.297Z,101468.17
2023-05-02T20:53:50.654Z,101470.80
2023-05-02T20:56:23.250Z,101479.16
2023-05-02T20:58:55.473Z,101477.40
2023-05-02T21:01:29.761Z,101480.41
2023-05-02T21:04:03.670Z,101482.84
2023-05-02T21:06:36.191Z,101481.88
2023-05-02T21:09:09.612Z,101480.20
2023-05-02T21:11:41.616Z,101477.42
2023-05-02T21:14:14.056Z,101479.50
2023-05-02T21:16:46.561Z,101483.46
2023-05-02T21:19:19.199Z,101486.65
2023-05-02T21:21:51.623Z,101486.31
2023-05-02T21:24:23.909Z,101485.55
2023-05-02T21:26:56.236Z,101484.96
2023-05-02T21:29:28.587Z,101487.80
2023-05-02T21:32:01.047Z,101483.03
2023-05-02T21:34:33.475Z,101480.31
2023-05-02T21:37:06.747Z,101483.00
2023-05-02T21:39:39.629Z,101482.39
2023-05-02T21:42:11.960Z,101479.01
2023-05-02T21:44:44.418Z,101479.23
2023-05-02T21:47:16.782Z,101487.65
2023-05-02T21:49:49.659Z,101485.01
2023-05-02T21:52:22.040Z,101486.54
2023-05-02T21:54:54.687Z,101493.25
2023-05-02T21:57:27.136Z,101499.43
2023-05-02T21:59:59.338Z,101499.02
2023-05-02T22:02:31.809Z,101496.95
2023-05-02T22:05:04.827Z,101495.86
2023-05-02T22:07:37.207Z,101495.64
2023-05-02T22:10:11.691Z,101495.56
2023-05-02T22:12:43.970Z,101498.17
2023-05-02T22:15:16.709Z,101497.90
2023-05-02T22:17:49.262Z,101493.27
2023-05-02T22:20:22.178Z,101491.36
2023-05-02T22:22:54.790Z,101492.73
2023-05-02T22:25:27.235Z,101499.76
2023-05-02T22:28:03.341Z,101500.06
2023-05-02T22:30:35.668Z,101504.02
2023-05-02T22:33:08.660Z,101504.09
2023-05-02T22:35:41.240Z,101505.20
2023-05-02T22:38:17.847Z,101508.38
2023-05-02T22:40:50.245Z,101510.37
2023-05-02T22:43:22.622Z,101509.14
2023-05-02T22:45:55.726Z,101510.77
2023-05-02T22:48:28.111Z,101511.94
2023-05-02T22:51:01.100Z,101511.45
2023-05-02T22:53:33.390Z,101510.44
2023-05-02T22:56:05.985Z,101503.61
2023-05-02T22:58:38.265Z,101503.52
2023-05-02T23:01:11.542Z,101500.77
2023-05-02T23:03:44.084Z,101498.39
2023-05-02T23:06:16.499Z,101494.83
2023-05-02T23:08:49.311Z,101486.83
2023-05-02T23:11:21.555Z,101488.13
2023-05-02T23:13:53.833Z,101481.24
2023-05-02T23:16:26.227Z,101475.83
2023-05-02T23:18:58.671Z,101471.85
2023-05-02T23:21:30.923Z,101468.40
2023-05-02T23:24:03.230Z,101469.80
2023-05-02T23:26:36.251Z,101470.79
2023-05-02T23:29:08.604Z,101470.77
2023-05-02T23:31:41.518Z,101471.86
2023-05-02T23:34:14.165Z,101469.66
2023-05-02T23:36:46.922Z,101469.71
2023-05-02T23:39:19.253Z,101467.64
2023-05-02T23:41:51.552Z,101467.46
2023-05-02T23:44:23.835Z,101468.64
2023-05-02T23:46:56.261Z,101469.17
2023-05-02T23:49:28.619Z,101476.30
2023-05-02T23:52:02.767Z,101476.73
2023-05-02T23:54:35.734Z,101474.70
2023-05-02T23:57:09.466Z,101468.29
2023-05-02T23:59:41.988Z,101469.36
